Terminal Aerodrome Forecast
Issued by NWS Quad Cities IA IL

Home | Current Version | Previous Version | Text Only | Print | Product List | Glossary On
Versions: 1 2 3 4 5 6 7 8 9 10 11 12 13 14 15 16 17 18 19 20 21 22 23 24 25 26
000
FTUS43 KDVN 271000 AAE
TAFDBQ
TAF AMD
KDBQ 271058Z 2711/2806 20008KT 6SM -RA BR BKN007 OVC012
     FM271200 21006KT 4SM -RA BR OVC004
     FM271500 26013KT P6SM OVC008
     FM271700 29015G22KT P6SM BKN015
     FM272200 29010KT P6SM BKN025=

USA.gov is the U.S. government's official web portal to all federal, state and local government web resources and services.